Thunder radar more information blitzortung!


Radar de pluja more information rain snow radar


Visita la nostra xarxa de llocs de meteo:

Template documentation
and downloads

And another site



No particular awareness of the weather is required.    There are no Weather-warnings

Pagina Historial Weather Underground text

Diari Resum January 14, 2016 Unitats:  Mètric    Imperial   Tant
« Previous Dia
SegĂźent Dia »
Diari Setmana Mensual Anual Personalitzada
  Maxima: Minima: Media:
Temperatura: -17.8 °C -13.3 °C -11.8 °C
Punt de rosada: -17.8 °C -17.1 °C -16.4 °C
Humitat: Humidity % 46 % 56 %
Wind Speed: 0 km/h 0 km/h 10 km/h
RĂ fegues de vent: 0 km/h - -
Vent:- - SW
Pression baro: 0 hPa 34256.2 hPa -
Precipitacions: 0 mm    
Historical Graphs
 
 
Dades de taula per January 14, 2016
Temps Temperatura Punt de rosada Pression baro Vent Wind Speed RĂ fegues de vent Humitat Rainfall Rate (Hourly)
-17.8 °C -17.8 °C 0 hPa Calm     Humidity % 0 mm
11:03 -10.9 °C -16.7 °C 34428.8 hPa SW 11.9 km/h 11.9 km/h 49 % 0 mm
11:08 -10.8 °C -16.5 °C 34428.8 hPa South 11.9 km/h 11.9 km/h 50 % 0 mm
11:18 -10.8 °C -16.5 °C 34428.8 hPa WSW 9 km/h 9 km/h 50 % 0 mm
11:23 -10.8 °C -16.6 °C 34395 hPa WSW 11.9 km/h 11.9 km/h 49 % 0 mm
11:28 -10.9 °C -16.7 °C 34395 hPa WSW 9 km/h 9 km/h 49 % 0 mm
11:33 -10.9 °C -16.7 °C 34395 hPa WSW 7.6 km/h 7.6 km/h 49 % 0 mm
11:38 -10.9 °C -16.7 °C 34428.8 hPa SW 11.1 km/h 11.1 km/h 49 % 0 mm
11:48 -10.9 °C -16.9 °C 34428.8 hPa WSW 6 km/h 6 km/h 48 % 0 mm
11:53 -10.9 °C -16.9 °C 34395 hPa WSW 9 km/h 9 km/h 48 % 0 mm
11:58 -11 °C -16.9 °C 34395 hPa SSW 14.5 km/h 14.5 km/h 48 % 0 mm
12:03 -11 °C -16.9 °C 34395 hPa WSW 9 km/h 9 km/h 48 % 0 mm
12:08 -11.1 °C -17 °C 34395 hPa SW 11.9 km/h 11.9 km/h 48 % 0 mm
12:13 -11 °C -16.9 °C 34395 hPa SSW 9 km/h 9 km/h 48 % 0 mm
12:23 -11 °C -16.9 °C 34395 hPa SW 11.9 km/h 11.9 km/h 48 % 0 mm
12:28 -11 °C -17.1 °C 34395 hPa ESE 9.8 km/h 9.8 km/h 47 % 0 mm
12:33 -11 °C -16.9 °C 34395 hPa WSW 9 km/h 9 km/h 48 % 0 mm
12:38 -10.9 °C -16.9 °C 34395 hPa West 7.6 km/h 7.6 km/h 48 % 0 mm
12:43 -10.9 °C -16.9 °C 34395 hPa WSW 9 km/h 9 km/h 48 % 0 mm
12:53 -10.8 °C -16.9 °C 34361.1 hPa WSW 11.9 km/h 11.9 km/h 47 % 0 mm
12:58 -10.8 °C -16.9 °C 34361.1 hPa WSW 9.8 km/h 9.8 km/h 47 % 0 mm
13:03 -10.7 °C -16.8 °C 34361.1 hPa WSW 20.9 km/h 20.9 km/h 47 % 0 mm
13:08 -10.7 °C -17 °C 34361.1 hPa SW 10.3 km/h 10.3 km/h 46 % 0 mm
13:13 -10.6 °C -16.9 °C 34361.1 hPa WSW 15 km/h 15 km/h 46 % 0 mm
13:18 -10.5 °C -16.8 °C 34361.1 hPa WSW 15 km/h 15 km/h 46 % 0 mm
13:23 -10.4 °C -16.6 °C 34361.1 hPa West 9.8 km/h 9.8 km/h 47 % 0 mm
13:28 -10.3 °C -16.5 °C 34361.1 hPa NNW 15 km/h 15 km/h 47 % 0 mm
13:33 -10.3 °C -16.7 °C 34361.1 hPa WSW 12.7 km/h 12.7 km/h 46 % 0 mm
13:43 -10.3 °C -16.6 °C 34327.3 hPa West 16.1 km/h 17.9 km/h 46 % 0 mm
13:48 -10.3 °C -16.5 °C 34327.3 hPa WSW 15.3 km/h 15.3 km/h 47 % 0 mm
13:53 -10.4 °C -16.6 °C 34327.3 hPa NW 15.6 km/h 15.6 km/h 47 % 0 mm
13:58 -10.4 °C -16.6 °C 34327.3 hPa WSW 9.8 km/h 10.3 km/h 47 % 0 mm
14:03 -10.4 °C -16.4 °C 34327.3 hPa NW 11.9 km/h 11.9 km/h 48 % 0 mm
14:08 -10.4 °C -16.4 °C 34327.3 hPa WNW 11.9 km/h 11.9 km/h 48 % 0 mm
14:14 -10.4 °C -16.4 °C 34327.3 hPa West 15.3 km/h 15.3 km/h 48 % 0 mm
14:19 -10.6 °C -16.4 °C 34327.3 hPa WSW 17.9 km/h 17.9 km/h 49 % 0 mm
14:24 -10.6 °C -16.4 °C 34327.3 hPa NNW 17.9 km/h 17.9 km/h 49 % 0 mm
14:29 -10.7 °C -16.6 °C 34327.3 hPa South 6 km/h 11.1 km/h 49 % 0 mm
14:34 -10.8 °C -16.6 °C 34327.3 hPa West 17.9 km/h 17.9 km/h 49 % 0 mm
14:39 -10.9 °C -16.7 °C 34327.3 hPa SW 15 km/h 15 km/h 49 % 0 mm
14:44 -10.9 °C -16.7 °C 34327.3 hPa NW 15 km/h 15 km/h 49 % 0 mm
14:49 -11 °C -16.6 °C 34327.3 hPa SW 15 km/h 15 km/h 50 % 0 mm
14:54 -10.9 °C -16.6 °C 34327.3 hPa NW 15 km/h 15 km/h 50 % 0 mm
14:59 -10.9 °C -16.6 °C 34327.3 hPa SW 23.8 km/h 23.8 km/h 50 % 0 mm
15:04 -10.9 °C -16.6 °C 34327.3 hPa WSW 23.8 km/h 23.8 km/h 50 % 0 mm
15:09 -10.9 °C -16.4 °C 34327.3 hPa WSW 15 km/h 15 km/h 51 % 0 mm
15:14 -10.9 °C -16.4 °C 34327.3 hPa WSW 32.8 km/h 32.8 km/h 51 % 0 mm
15:19 -10.9 °C -16.4 °C 34327.3 hPa West 15 km/h 15 km/h 51 % 0 mm
15:24 -10.9 °C -16.4 °C 34293.4 hPa WSW 44.7 km/h 44.7 km/h 51 % 0 mm
15:29 -10.9 °C -16.4 °C 34293.4 hPa WSW 16.6 km/h 16.6 km/h 51 % 0 mm
15:39 -10.9 °C -16.4 °C 34293.4 hPa SSW 9 km/h 9 km/h 51 % 0 mm
15:44 -10.9 °C -16.4 °C 34293.4 hPa WSW 9 km/h 10.3 km/h 51 % 0 mm
15:49 -11 °C -16.5 °C 34293.4 hPa SW 23.8 km/h 23.8 km/h 51 % 0 mm
15:54 -11 °C -16.3 °C 34256.2 hPa North 15 km/h 15 km/h 52 % 0 mm
15:59 -11.1 °C -16.3 °C 34256.2 hPa WNW 15 km/h 15 km/h 52 % 0 mm
16:04 -11.1 °C -16.3 °C 34256.2 hPa ESE 11.9 km/h 11.9 km/h 52 % 0 mm
16:14 -11.1 °C -16.3 °C 34293.4 hPa West 17.4 km/h 17.4 km/h 52 % 0 mm
16:19 -11.1 °C -16.2 °C 34293.4 hPa WSW 20.9 km/h 20.9 km/h 53 % 0 mm
16:24 -11.1 °C -16.2 °C 34327.3 hPa WSW 17.9 km/h 17.9 km/h 53 % 0 mm
16:29 -11.1 °C -16.2 °C 34327.3 hPa West 11.1 km/h 11.1 km/h 53 % 0 mm
16:34 -11.1 °C -16.2 °C 34327.3 hPa WSW 20.9 km/h 20.9 km/h 53 % 0 mm
16:39 -11.1 °C -16.1 °C 34327.3 hPa WNW 20.3 km/h 20.3 km/h 54 % 0 mm
16:44 -11.1 °C -16.1 °C 34327.3 hPa WSW 19.2 km/h 19.2 km/h 54 % 0 mm
16:54 -11.1 °C -16 °C 34327.3 hPa WNW 23.8 km/h 23.8 km/h 55 % 0 mm
16:59 -11.1 °C -16.1 °C 34327.3 hPa WSW 11.9 km/h 11.9 km/h 54 % 0 mm
17:04 -11.1 °C -15.9 °C 34327.3 hPa SW 20.9 km/h 20.9 km/h 55 % 0 mm
17:09 -11 °C -15.9 °C 34327.3 hPa North 15 km/h 15 km/h 55 % 0 mm
17:14 -11 °C -15.9 °C 34327.3 hPa NNW 7.6 km/h 7.6 km/h 55 % 0 mm
17:19 -11.1 °C -16 °C 34327.3 hPa NNW 6.8 km/h 6.8 km/h 55 % 0 mm
17:29 -11.1 °C -16 °C 34327.3 hPa NNE 15.3 km/h 15.3 km/h 55 % 0 mm
17:34 -11.3 °C -16.1 °C 34327.3 hPa NNW 11.9 km/h 11.9 km/h 56 % 0 mm
17:39 -11.5 °C -16.2 °C 34327.3 hPa WNW 6 km/h 6 km/h 56 % 0 mm
17:44 -11.6 °C -16.3 °C 34327.3 hPa NW 6 km/h 6 km/h 56 % 0 mm
17:49 -11.7 °C -16.2 °C 34327.3 hPa West 15 km/h 15 km/h 57 % 0 mm
17:54 -11.8 °C -16.3 °C 34361.1 hPa WSW 15 km/h 15 km/h 57 % 0 mm
17:59 -11.8 °C -16.3 °C 34361.1 hPa WSW 17.9 km/h 17.9 km/h 57 % 0 mm
18:04 -11.9 °C -16.3 °C 34361.1 hPa WSW 11.9 km/h 11.9 km/h 58 % 0 mm
18:09 -11.9 °C -16.2 °C 34361.1 hPa NW 23.8 km/h 23.8 km/h 59 % 0 mm
18:14 -11.9 °C -16 °C 34361.1 hPa NW 6 km/h   60 % 0 mm
18:19 -12 °C -16.2 °C 34361.1 hPa ENE 6 km/h 6.8 km/h 60 % 0 mm
18:24 -12.1 °C -16.2 °C 34361.1 hPa NW 9 km/h 9 km/h 60 % 0 mm
18:29 -12.1 °C -16.3 °C 34361.1 hPa SSW 6 km/h 6 km/h 59 % 0 mm
18:34 -12.2 °C -16.4 °C 34361.1 hPa SW 22 km/h 22 km/h 59 % 0 mm
18:39 -12.2 °C -16.2 °C 34395 hPa WNW 11.9 km/h 11.9 km/h 61 % 0 mm
18:44 -12.2 °C -16.2 °C 34395 hPa NNW 6 km/h 6 km/h 61 % 0 mm
18:49 -12.2 °C -16.2 °C 34395 hPa WSW 11.9 km/h 11.9 km/h 61 % 0 mm
18:54 -12.2 °C -16.2 °C 34395 hPa West 15 km/h 15 km/h 61 % 0 mm
18:59 -12.3 °C -16.2 °C 34395 hPa West 8 km/h 8 km/h 62 % 0 mm
19:04 -12.3 °C -16.2 °C 34395 hPa West 6.3 km/h 6.3 km/h 62 % 0 mm
19:09 -12.4 °C -16.2 °C 34395 hPa WSW 6.8 km/h 6.8 km/h 62 % 0 mm
19:14 -12.4 °C -16.2 °C 34395 hPa SSE 3.1 km/h   62 % 0 mm
19:19 -12.4 °C -16.2 °C 34395 hPa NW 3.1 km/h   63 % 0 mm
19:24 -12.5 °C -16.3 °C 34395 hPa WSW 6 km/h 6 km/h 62 % 0 mm
19:29 -12.5 °C -16.3 °C 34395 hPa West 3.1 km/h 3.1 km/h 62 % 0 mm
19:34 -12.6 °C -16.3 °C 34395 hPa WSW 3.1 km/h 3.1 km/h 63 % 0 mm
19:39 -12.6 °C -16.4 °C 34428.8 hPa WSW 7.6 km/h 7.6 km/h 62 % 0 mm
19:44 -12.6 °C -16.3 °C 34428.8 hPa WSW 9 km/h 9 km/h 63 % 0 mm
19:49 -12.6 °C -16.3 °C 34428.8 hPa West 6 km/h 6 km/h 63 % 0 mm
19:54 -12.6 °C -16.2 °C 34395 hPa WSW 6 km/h   64 % 0 mm
19:59 -12.7 °C -16.3 °C 34395 hPa NNE 3.1 km/h   64 % 0 mm
20:04 -12.7 °C -16.4 °C 34395 hPa West 6 km/h 6 km/h 63 % 0 mm
20:09 -12.8 °C -16.3 °C 34395 hPa WNW 3.1 km/h 3.1 km/h 64 % 0 mm
20:14 -12.8 °C -16.4 °C 34395 hPa ESE 3.1 km/h   64 % 0 mm
20:19 -12.9 °C -16.3 °C 34395 hPa Calm     65 % 0 mm
20:24 -12.9 °C -16.4 °C 34428.8 hPa Calm     65 % 0 mm
20:29 -13 °C -16.4 °C 34428.8 hPa NE 3.7 km/h 3.7 km/h 65 % 0 mm
20:34 -13 °C -16.4 °C 34428.8 hPa ENE 3.1 km/h 3.7 km/h 65 % 0 mm
20:39 -13 °C -16.4 °C 34462.7 hPa NE 4.2 km/h 4.2 km/h 65 % 0 mm
20:44 -13.1 °C -16.5 °C 34462.7 hPa NE 3.1 km/h   65 % 0 mm
20:49 -13.1 °C -16.5 °C 34462.7 hPa ENE 3.1 km/h   65 % 0 mm
20:54 -13.1 °C -16.5 °C 34462.7 hPa Calm     65 % 0 mm
20:59 -13.1 °C -16.7 °C 34462.7 hPa SSE 3.1 km/h 3.7 km/h 64 % 0 mm
21:04 -13.2 °C -16.7 °C 34462.7 hPa Calm     64 % 0 mm
21:09 -13.2 °C -16.8 °C 34462.7 hPa Calm     64 % 0 mm
21:14 -13.2 °C -16.7 °C 34462.7 hPa Calm     65 % 0 mm
21:19 -13.2 °C -16.7 °C 34462.7 hPa SW 6 km/h 6 km/h 65 % 0 mm
21:24 -13.3 °C -16.7 °C 34462.7 hPa Calm     65 % 0 mm
21:29 -13.3 °C -16.7 °C 34462.7 hPa SW 3.1 km/h   65 % 0 mm
21:34 -13.3 °C -16.6 °C 34462.7 hPa SW 3.1 km/h   66 % 0 mm
21:39 -13.3 °C -16.7 °C 34462.7 hPa WNW 3.7 km/h   65 % 0 mm
21:49 -13.2 °C -16.6 °C 34462.7 hPa SW 3.7 km/h 3.7 km/h 66 % 0 mm
21:54 -13.2 °C -16.6 °C 34462.7 hPa NNE 6 km/h 6 km/h 66 % 0 mm
21:59 -13.2 °C -16.5 °C 34462.7 hPa Calm     66 % 0 mm
22:04 -13.2 °C -16.7 °C 34462.7 hPa WSW 6 km/h 6 km/h 65 % 0 mm
22:09 -13.2 °C -16.6 °C 34462.7 hPa Calm     66 % 0 mm
22:14 -13.2 °C -16.6 °C 34462.7 hPa Calm     66 % 0 mm
22:19 -13.2 °C -16.7 °C 34462.7 hPa SW 6 km/h 6 km/h 65 % 0 mm
22:24 -13.3 °C -16.6 °C 34462.7 hPa WSW 6 km/h 6 km/h 66 % 0 mm
22:29 -13.2 °C -16.5 °C 34462.7 hPa WSW 6 km/h 6 km/h 66 % 0 mm
22:34 -13.1 °C -16.4 °C 34462.7 hPa SW 6 km/h 6 km/h 66 % 0 mm
22:39 -13.2 °C -16.4 °C 34462.7 hPa WSW 6 km/h 6 km/h 67 % 0 mm
22:44 -13.1 °C -16.3 °C 34462.7 hPa WSW 6 km/h 6 km/h 67 % 0 mm
22:49 -13.1 °C -16.3 °C 34462.7 hPa WSW 6 km/h 6 km/h 67 % 0 mm
22:54 -13.1 °C -16.3 °C 34462.7 hPa SW 6.3 km/h 6.3 km/h 67 % 0 mm
22:59 -13.1 °C -16.3 °C 34462.7 hPa WSW 6 km/h 6 km/h 67 % 0 mm
23:04 -13.1 °C -16.3 °C 34462.7 hPa WSW 3.1 km/h 3.1 km/h 67 % 0 mm
23:09 -13 °C -16.2 °C 34462.7 hPa WSW 4.2 km/h 4.2 km/h 67 % 0 mm
23:14 -12.9 °C -16.2 °C 34462.7 hPa WSW 4.2 km/h 4.2 km/h 67 % 0 mm
23:19 -12.9 °C -16.2 °C 34462.7 hPa WSW 3.1 km/h 3.1 km/h 67 % 0 mm
23:24 -12.9 °C -16.2 °C 34462.7 hPa WSW 6 km/h 6 km/h 67 % 0 mm
23:29 -12.9 °C -16.1 °C 34462.7 hPa Calm     68 % 0 mm
Meteo Sesrovires
Elogis d' Weather Underground - 2 mb

Guio original per  Jim McMurry - jmcmurry@mwt.net Adaptat per a la plantilla per  Wim van der Kuil - Leuven-Template.eu

Trobareu la nostra informacio del temps tambe a:

Weather Underground

AWEKAS